sensor_id;sensor_type;location;lat;lon;timestamp;P1;durP1;ratioP1;P2;durP2;ratioP2
6537;SDS011;3302;52.508;13.454;2022-07-03T00:01:16;4.10;;;3.70;;
6537;SDS011;3302;52.508;13.454;2022-07-03T00:03:42;5.00;;;3.30;;
6537;SDS011;3302;52.508;13.454;2022-07-03T00:06:08;4.57;;;3.30;;
6537;SDS011;3302;52.508;13.454;2022-07-03T00:08:34;5.37;;;4.83;;
6537;SDS011;3302;52.508;13.454;2022-07-03T00:11:00;4.43;;;3.80;;
6537;SDS011;3302;52.508;13.454;2022-07-03T00:13:26;4.77;;;3.73;;
6537;SDS011;3302;52.508;13.454;2022-07-03T00:15:51;4.33;;;3.40;;
6537;SDS011;3302;52.508;13.454;2022-07-03T00:18:17;4.30;;;3.90;;
6537;SDS011;3302;52.508;13.454;2022-07-03T00:20:48;4.70;;;4.00;;
6537;SDS011;3302;52.508;13.454;2022-07-03T00:23:18;5.10;;;3.87;;
6537;SDS011;3302;52.508;13.454;2022-07-03T00:25:45;4.80;;;4.00;;
6537;SDS011;3302;52.508;13.454;2022-07-03T00:28:14;4.30;;;3.90;;
6537;SDS011;3302;52.508;13.454;2022-07-03T00:30:41;4.23;;;3.83;;
6537;SDS011;3302;52.508;13.454;2022-07-03T00:33:08;4.00;;;3.60;;
6537;SDS011;3302;52.508;13.454;2022-07-03T00:35:35;4.03;;;3.63;;
6537;SDS011;3302;52.508;13.454;2022-07-03T00:38:04;6.20;;;3.53;;
6537;SDS011;3302;52.508;13.454;2022-07-03T00:40:30;4.20;;;3.80;;
6537;SDS011;3302;52.508;13.454;2022-07-03T00:42:56;3.73;;;3.37;;
6537;SDS011;3302;52.508;13.454;2022-07-03T00:45:25;4.33;;;3.70;;
6537;SDS011;3302;52.508;13.454;2022-07-03T00:47:52;4.67;;;3.47;;
6537;SDS011;3302;52.508;13.454;2022-07-03T00:50:24;3.90;;;3.50;;
6537;SDS011;3302;52.508;13.454;2022-07-03T00:52:51;4.33;;;3.93;;
6537;SDS011;3302;52.508;13.454;2022-07-03T00:55:17;3.97;;;3.60;;
6537;SDS011;3302;52.508;13.454;2022-07-03T00:57:47;3.60;;;3.30;;
6537;SDS011;3302;52.508;13.454;2022-07-03T01:00:16;4.00;;;3.50;;
6537;SDS011;3302;52.508;13.454;2022-07-03T01:05:27;3.90;;;3.40;;
6537;SDS011;3302;52.508;13.454;2022-07-03T01:16:27;6.43;;;3.50;;
6537;SDS011;3302;52.508;13.454;2022-07-03T01:21:35;4.47;;;3.63;;
6537;SDS011;3302;52.508;13.454;2022-07-03T01:24:34;3.90;;;3.43;;
6537;SDS011;3302;52.508;13.454;2022-07-03T01:29:58;4.77;;;4.03;;
6537;SDS011;3302;52.508;13.454;2022-07-03T01:32:28;5.00;;;3.93;;
6537;SDS011;3302;52.508;13.454;2022-07-03T01:34:58;4.77;;;3.67;;
6537;SDS011;3302;52.508;13.454;2022-07-03T01:37:26;4.70;;;4.17;;
6537;SDS011;3302;52.508;13.454;2022-07-03T01:39:54;4.47;;;3.90;;
6537;SDS011;3302;52.508;13.454;2022-07-03T01:42:23;4.70;;;3.73;;
6537;SDS011;3302;52.508;13.454;2022-07-03T01:44:50;6.20;;;3.67;;
6537;SDS011;3302;52.508;13.454;2022-07-03T01:47:18;4.70;;;3.67;;
6537;SDS011;3302;52.508;13.454;2022-07-03T01:49:44;4.13;;;3.50;;
6537;SDS011;3302;52.508;13.454;2022-07-03T01:52:10;4.23;;;3.83;;
6537;SDS011;3302;52.508;13.454;2022-07-03T01:54:37;4.87;;;4.30;;
6537;SDS011;3302;52.508;13.454;2022-07-03T01:57:07;4.33;;;3.93;;
6537;SDS011;3302;52.508;13.454;2022-07-03T01:59:33;4.70;;;4.13;;
6537;SDS011;3302;52.508;13.454;2022-07-03T02:02:04;5.07;;;3.87;;
6537;SDS011;3302;52.508;13.454;2022-07-03T02:07:55;4.03;;;3.63;;
6537;SDS011;3302;52.508;13.454;2022-07-03T02:10:33;3.77;;;3.47;;
6537;SDS011;3302;52.508;13.454;2022-07-03T02:13:14;3.70;;;3.40;;
6537;SDS011;3302;52.508;13.454;2022-07-03T02:15:43;5.97;;;3.70;;
6537;SDS011;3302;52.508;13.454;2022-07-03T02:18:11;4.13;;;3.70;;
6537;SDS011;3302;52.508;13.454;2022-07-03T02:21:10;4.77;;;4.37;;
6537;SDS011;3302;52.508;13.454;2022-07-03T02:24:23;3.70;;;3.40;;
6537;SDS011;3302;52.508;13.454;2022-07-03T02:26:38;3.97;;;3.37;;
6537;SDS011;3302;52.508;13.454;2022-07-03T02:29:06;8.00;;;4.10;;
6537;SDS011;3302;52.508;13.454;2022-07-03T02:31:38;3.70;;;3.40;;
6537;SDS011;3302;52.508;13.454;2022-07-03T02:34:07;3.80;;;3.50;;
6537;SDS011;3302;52.508;13.454;2022-07-03T02:36:39;5.40;;;3.93;;
6537;SDS011;3302;52.508;13.454;2022-07-03T02:39:08;4.43;;;4.03;;
6537;SDS011;3302;52.508;13.454;2022-07-03T02:41:50;4.73;;;3.90;;
6537;SDS011;3302;52.508;13.454;2022-07-03T02:44:39;7.10;;;4.00;;
6537;SDS011;3302;52.508;13.454;2022-07-03T02:49:50;4.20;;;3.80;;
6537;SDS011;3302;52.508;13.454;2022-07-03T02:54:57;5.13;;;4.10;;
6537;SDS011;3302;52.508;13.454;2022-07-03T03:00:02;4.23;;;3.83;;
6537;SDS011;3302;52.508;13.454;2022-07-03T03:05:12;5.90;;;3.60;;
6537;SDS011;3302;52.508;13.454;2022-07-03T03:10:28;3.70;;;3.20;;
6537;SDS011;3302;52.508;13.454;2022-07-03T03:13:04;4.63;;;3.50;;
6537;SDS011;3302;52.508;13.454;2022-07-03T03:15:37;4.20;;;3.80;;
6537;SDS011;3302;52.508;13.454;2022-07-03T03:18:05;4.27;;;3.83;;
6537;SDS011;3302;52.508;13.454;2022-07-03T03:20:35;3.77;;;3.47;;
6537;SDS011;3302;52.508;13.454;2022-07-03T03:26:14;5.27;;;3.63;;
6537;SDS011;3302;52.508;13.454;2022-07-03T03:28:43;3.97;;;3.57;;
6537;SDS011;3302;52.508;13.454;2022-07-03T03:31:09;4.00;;;3.60;;
6537;SDS011;3302;52.508;13.454;2022-07-03T03:33:38;7.13;;;4.07;;
6537;SDS011;3302;52.508;13.454;2022-07-03T03:36:05;4.53;;;4.10;;
6537;SDS011;3302;52.508;13.454;2022-07-03T03:38:33;4.70;;;4.07;;
6537;SDS011;3302;52.508;13.454;2022-07-03T03:40:59;4.97;;;4.10;;
6537;SDS011;3302;52.508;13.454;2022-07-03T03:43:26;5.10;;;3.80;;
6537;SDS011;3302;52.508;13.454;2022-07-03T03:45:52;4.97;;;4.00;;
6537;SDS011;3302;52.508;13.454;2022-07-03T03:48:18;4.20;;;3.80;;
6537;SDS011;3302;52.508;13.454;2022-07-03T03:50:44;4.30;;;3.90;;
6537;SDS011;3302;52.508;13.454;2022-07-03T03:53:10;3.80;;;3.50;;
6537;SDS011;3302;52.508;13.454;2022-07-03T03:55:37;4.70;;;3.70;;
6537;SDS011;3302;52.508;13.454;2022-07-03T03:58:16;3.97;;;3.40;;
6537;SDS011;3302;52.508;13.454;2022-07-03T04:00:42;4.63;;;3.87;;
6537;SDS011;3302;52.508;13.454;2022-07-03T04:03:08;4.60;;;3.77;;
6537;SDS011;3302;52.508;13.454;2022-07-03T04:05:33;4.30;;;3.90;;
6537;SDS011;3302;52.508;13.454;2022-07-03T04:07:59;4.33;;;3.93;;
6537;SDS011;3302;52.508;13.454;2022-07-03T04:10:25;5.73;;;3.90;;
6537;SDS011;3302;52.508;13.454;2022-07-03T04:12:51;5.00;;;3.80;;
6537;SDS011;3302;52.508;13.454;2022-07-03T04:15:16;4.47;;;4.00;;
6537;SDS011;3302;52.508;13.454;2022-07-03T04:17:42;6.67;;;3.50;;
6537;SDS011;3302;52.508;13.454;2022-07-03T04:20:08;4.23;;;3.77;;
6537;SDS011;3302;52.508;13.454;2022-07-03T04:22:34;4.63;;;3.63;;
6537;SDS011;3302;52.508;13.454;2022-07-03T04:25:00;3.67;;;3.13;;
6537;SDS011;3302;52.508;13.454;2022-07-03T04:27:26;4.10;;;3.70;;
6537;SDS011;3302;52.508;13.454;2022-07-03T04:29:51;4.20;;;3.73;;
6537;SDS011;3302;52.508;13.454;2022-07-03T04:32:17;3.90;;;3.50;;
6537;SDS011;3302;52.508;13.454;2022-07-03T04:34:43;4.33;;;3.93;;
6537;SDS011;3302;52.508;13.454;2022-07-03T04:37:08;4.60;;;3.70;;
6537;SDS011;3302;52.508;13.454;2022-07-03T04:39:34;6.23;;;4.00;;
6537;SDS011;3302;52.508;13.454;2022-07-03T04:42:00;5.47;;;4.00;;
6537;SDS011;3302;52.508;13.454;2022-07-03T04:44:26;3.70;;;3.40;;
6537;SDS011;3302;52.508;13.454;2022-07-03T04:46:52;4.57;;;4.00;;
6537;SDS011;3302;52.508;13.454;2022-07-03T04:49:18;4.53;;;4.13;;
6537;SDS011;3302;52.508;13.454;2022-07-03T04:51:44;4.17;;;3.70;;
6537;SDS011;3302;52.508;13.454;2022-07-03T04:54:10;5.63;;;4.07;;
6537;SDS011;3302;52.508;13.454;2022-07-03T04:56:36;4.17;;;3.70;;
6537;SDS011;3302;52.508;13.454;2022-07-03T04:59:01;5.30;;;3.77;;
6537;SDS011;3302;52.508;13.454;2022-07-03T05:01:27;4.17;;;3.43;;
6537;SDS011;3302;52.508;13.454;2022-07-03T05:03:53;4.13;;;3.73;;
6537;SDS011;3302;52.508;13.454;2022-07-03T05:06:19;4.87;;;4.10;;
6537;SDS011;3302;52.508;13.454;2022-07-03T05:08:44;4.70;;;3.90;;
6537;SDS011;3302;52.508;13.454;2022-07-03T05:11:10;4.07;;;3.30;;
6537;SDS011;3302;52.508;13.454;2022-07-03T05:13:36;3.77;;;3.40;;
6537;SDS011;3302;52.508;13.454;2022-07-03T05:16:02;4.57;;;3.33;;
6537;SDS011;3302;52.508;13.454;2022-07-03T05:18:28;5.83;;;3.50;;
6537;SDS011;3302;52.508;13.454;2022-07-03T05:20:53;3.87;;;3.33;;
6537;SDS011;3302;52.508;13.454;2022-07-03T05:23:19;3.60;;;3.30;;
6537;SDS011;3302;52.508;13.454;2022-07-03T05:25:45;7.03;;;3.53;;
6537;SDS011;3302;52.508;13.454;2022-07-03T05:28:11;3.40;;;3.10;;
6537;SDS011;3302;52.508;13.454;2022-07-03T05:30:36;4.17;;;3.73;;
6537;SDS011;3302;52.508;13.454;2022-07-03T05:33:02;3.40;;;3.10;;
6537;SDS011;3302;52.508;13.454;2022-07-03T05:35:28;4.83;;;3.17;;
6537;SDS011;3302;52.508;13.454;2022-07-03T05:37:54;3.83;;;3.20;;
6537;SDS011;3302;52.508;13.454;2022-07-03T05:40:20;3.97;;;3.50;;
6537;SDS011;3302;52.508;13.454;2022-07-03T05:42:46;4.57;;;3.30;;
6537;SDS011;3302;52.508;13.454;2022-07-03T05:45:11;4.37;;;3.10;;
6537;SDS011;3302;52.508;13.454;2022-07-03T05:47:37;3.40;;;3.10;;
6537;SDS011;3302;52.508;13.454;2022-07-03T05:50:03;3.90;;;2.70;;
6537;SDS011;3302;52.508;13.454;2022-07-03T05:52:29;3.77;;;2.93;;
6537;SDS011;3302;52.508;13.454;2022-07-03T05:54:55;3.43;;;2.90;;
6537;SDS011;3302;52.508;13.454;2022-07-03T05:57:20;3.80;;;2.90;;
6537;SDS011;3302;52.508;13.454;2022-07-03T05:59:46;4.03;;;3.03;;
6537;SDS011;3302;52.508;13.454;2022-07-03T06:02:12;4.33;;;2.97;;
6537;SDS011;3302;52.508;13.454;2022-07-03T06:04:38;2.90;;;2.60;;
6537;SDS011;3302;52.508;13.454;2022-07-03T06:07:04;2.97;;;2.63;;
6537;SDS011;3302;52.508;13.454;2022-07-03T06:09:29;3.00;;;2.80;;
6537;SDS011;3302;52.508;13.454;2022-07-03T06:11:55;2.90;;;2.60;;
6537;SDS011;3302;52.508;13.454;2022-07-03T06:14:21;4.33;;;2.50;;
6537;SDS011;3302;52.508;13.454;2022-07-03T06:16:47;2.80;;;2.50;;
6537;SDS011;3302;52.508;13.454;2022-07-03T06:19:12;3.63;;;2.80;;
6537;SDS011;3302;52.508;13.454;2022-07-03T06:21:38;3.63;;;2.73;;
6537;SDS011;3302;52.508;13.454;2022-07-03T06:24:04;2.97;;;2.53;;
6537;SDS011;3302;52.508;13.454;2022-07-03T06:26:30;5.07;;;2.70;;
6537;SDS011;3302;52.508;13.454;2022-07-03T06:28:56;4.73;;;2.80;;
6537;SDS011;3302;52.508;13.454;2022-07-03T06:31:22;3.53;;;2.43;;
6537;SDS011;3302;52.508;13.454;2022-07-03T06:33:47;2.70;;;2.50;;
6537;SDS011;3302;52.508;13.454;2022-07-03T06:36:13;3.20;;;2.90;;
6537;SDS011;3302;52.508;13.454;2022-07-03T06:38:39;2.80;;;2.60;;
6537;SDS011;3302;52.508;13.454;2022-07-03T06:41:05;3.00;;;2.70;;
6537;SDS011;3302;52.508;13.454;2022-07-03T06:43:30;4.20;;;2.70;;
6537;SDS011;3302;52.508;13.454;2022-07-03T06:45:56;7.70;;;2.80;;
6537;SDS011;3302;52.508;13.454;2022-07-03T06:48:22;3.10;;;2.70;;
6537;SDS011;3302;52.508;13.454;2022-07-03T06:50:48;5.00;;;2.83;;
6537;SDS011;3302;52.508;13.454;2022-07-03T06:53:14;3.80;;;2.87;;
6537;SDS011;3302;52.508;13.454;2022-07-03T06:55:39;3.83;;;3.00;;
6537;SDS011;3302;52.508;13.454;2022-07-03T06:58:05;2.83;;;2.40;;
6537;SDS011;3302;52.508;13.454;2022-07-03T07:00:31;2.87;;;2.40;;
6537;SDS011;3302;52.508;13.454;2022-07-03T07:02:57;5.50;;;3.20;;
6537;SDS011;3302;52.508;13.454;2022-07-03T07:05:23;2.77;;;2.50;;
6537;SDS011;3302;52.508;13.454;2022-07-03T07:07:49;3.93;;;2.60;;
6537;SDS011;3302;52.508;13.454;2022-07-03T07:10:14;2.77;;;2.50;;
6537;SDS011;3302;52.508;13.454;2022-07-03T07:12:40;2.93;;;2.53;;
6537;SDS011;3302;52.508;13.454;2022-07-03T07:15:06;3.40;;;2.57;;
6537;SDS011;3302;52.508;13.454;2022-07-03T07:17:32;3.67;;;2.43;;
6537;SDS011;3302;52.508;13.454;2022-07-03T07:19:58;3.50;;;2.43;;
6537;SDS011;3302;52.508;13.454;2022-07-03T07:22:24;3.03;;;2.73;;
6537;SDS011;3302;52.508;13.454;2022-07-03T07:24:50;3.17;;;2.50;;
6537;SDS011;3302;52.508;13.454;2022-07-03T07:27:17;2.67;;;2.40;;
6537;SDS011;3302;52.508;13.454;2022-07-03T07:29:42;5.87;;;2.80;;
6537;SDS011;3302;52.508;13.454;2022-07-03T07:32:08;2.60;;;2.40;;
6537;SDS011;3302;52.508;13.454;2022-07-03T07:34:34;2.70;;;2.43;;
6537;SDS011;3302;52.508;13.454;2022-07-03T07:37:00;4.00;;;2.57;;
6537;SDS011;3302;52.508;13.454;2022-07-03T07:39:25;3.07;;;2.73;;
6537;SDS011;3302;52.508;13.454;2022-07-03T07:41:51;3.03;;;2.70;;
6537;SDS011;3302;52.508;13.454;2022-07-03T07:44:17;3.10;;;2.40;;
6537;SDS011;3302;52.508;13.454;2022-07-03T07:46:43;4.13;;;3.00;;
6537;SDS011;3302;52.508;13.454;2022-07-03T07:49:08;3.20;;;2.50;;
6537;SDS011;3302;52.508;13.454;2022-07-03T07:51:34;3.90;;;2.60;;
6537;SDS011;3302;52.508;13.454;2022-07-03T07:54:00;2.90;;;2.50;;
6537;SDS011;3302;52.508;13.454;2022-07-03T07:56:26;2.60;;;2.40;;
6537;SDS011;3302;52.508;13.454;2022-07-03T07:58:52;9.00;;;4.80;;
6537;SDS011;3302;52.508;13.454;2022-07-03T08:01:20;7.33;;;4.50;;
6537;SDS011;3302;52.508;13.454;2022-07-03T08:04:05;3.17;;;2.83;;
6537;SDS011;3302;52.508;13.454;2022-07-03T08:06:49;4.40;;;2.60;;
6537;SDS011;3302;52.508;13.454;2022-07-03T08:09:15;3.23;;;2.90;;
6537;SDS011;3302;52.508;13.454;2022-07-03T08:11:41;3.37;;;3.07;;
6537;SDS011;3302;52.508;13.454;2022-07-03T08:14:07;3.03;;;2.60;;
6537;SDS011;3302;52.508;13.454;2022-07-03T08:16:33;3.07;;;2.10;;
6537;SDS011;3302;52.508;13.454;2022-07-03T08:19:00;2.90;;;2.50;;
6537;SDS011;3302;52.508;13.454;2022-07-03T08:21:26;4.22;;;2.65;;
6537;SDS011;3302;52.508;13.454;2022-07-03T08:23:52;2.90;;;2.40;;
6537;SDS011;3302;52.508;13.454;2022-07-03T08:26:18;3.05;;;2.58;;
6537;SDS011;3302;52.508;13.454;2022-07-03T08:28:43;3.13;;;2.20;;
6537;SDS011;3302;52.508;13.454;2022-07-03T08:31:09;2.97;;;2.30;;
6537;SDS011;3302;52.508;13.454;2022-07-03T08:33:36;3.47;;;2.63;;
6537;SDS011;3302;52.508;13.454;2022-07-03T08:36:02;2.77;;;2.57;;
6537;SDS011;3302;52.508;13.454;2022-07-03T08:38:31;3.10;;;2.80;;
6537;SDS011;3302;52.508;13.454;2022-07-03T08:41:01;2.92;;;2.63;;
6537;SDS011;3302;52.508;13.454;2022-07-03T08:43:28;5.70;;;3.17;;
6537;SDS011;3302;52.508;13.454;2022-07-03T08:45:54;5.13;;;3.93;;
6537;SDS011;3302;52.508;13.454;2022-07-03T08:48:21;8.73;;;5.30;;
6537;SDS011;3302;52.508;13.454;2022-07-03T08:50:48;7.93;;;6.00;;
6537;SDS011;3302;52.508;13.454;2022-07-03T08:53:16;4.60;;;4.18;;
6537;SDS011;3302;52.508;13.454;2022-07-03T08:55:43;10.88;;;7.00;;
6537;SDS011;3302;52.508;13.454;2022-07-03T08:58:13;10.73;;;7.28;;
6537;SDS011;3302;52.508;13.454;2022-07-03T09:00:44;10.15;;;6.53;;
6537;SDS011;3302;52.508;13.454;2022-07-03T09:03:11;11.43;;;8.25;;
6537;SDS011;3302;52.508;13.454;2022-07-03T09:05:39;9.88;;;7.50;;
6537;SDS011;3302;52.508;13.454;2022-07-03T09:08:08;4.47;;;4.03;;
6537;SDS011;3302;52.508;13.454;2022-07-03T09:10:35;6.10;;;5.50;;
6537;SDS011;3302;52.508;13.454;2022-07-03T09:13:01;2.40;;;2.20;;
6537;SDS011;3302;52.508;13.454;2022-07-03T09:15:28;4.30;;;2.80;;
6537;SDS011;3302;52.508;13.454;2022-07-03T09:17:57;2.90;;;2.67;;
6537;SDS011;3302;52.508;13.454;2022-07-03T09:20:32;2.92;;;2.20;;
6537;SDS011;3302;52.508;13.454;2022-07-03T09:23:09;2.83;;;2.50;;
6537;SDS011;3302;52.508;13.454;2022-07-03T09:26:12;3.63;;;2.40;;
6537;SDS011;3302;52.508;13.454;2022-07-03T09:28:41;3.47;;;2.83;;
6537;SDS011;3302;52.508;13.454;2022-07-03T09:31:10;3.65;;;2.50;;
6537;SDS011;3302;52.508;13.454;2022-07-03T09:36:41;2.92;;;2.40;;
6537;SDS011;3302;52.508;13.454;2022-07-03T09:42:07;2.67;;;2.00;;
6537;SDS011;3302;52.508;13.454;2022-07-03T09:44:37;5.88;;;2.58;;
6537;SDS011;3302;52.508;13.454;2022-07-03T09:49:48;3.50;;;2.30;;
6537;SDS011;3302;52.508;13.454;2022-07-03T09:52:27;2.42;;;2.05;;
6537;SDS011;3302;52.508;13.454;2022-07-03T09:54:58;2.72;;;2.20;;
6537;SDS011;3302;52.508;13.454;2022-07-03T09:57:28;2.95;;;2.22;;
6537;SDS011;3302;52.508;13.454;2022-07-03T10:00:14;2.25;;;2.05;;
6537;SDS011;3302;52.508;13.454;2022-07-03T10:02:59;2.45;;;2.10;;
6537;SDS011;3302;52.508;13.454;2022-07-03T10:05:38;3.53;;;2.08;;
6537;SDS011;3302;52.508;13.454;2022-07-03T10:10:36;2.83;;;2.20;;
6537;SDS011;3302;52.508;13.454;2022-07-03T10:13:03;2.72;;;2.38;;
6537;SDS011;3302;52.508;13.454;2022-07-03T10:15:31;3.75;;;2.80;;
6537;SDS011;3302;52.508;13.454;2022-07-03T10:17:58;2.47;;;2.22;;
6537;SDS011;3302;52.508;13.454;2022-07-03T10:20:26;3.08;;;2.67;;
6537;SDS011;3302;52.508;13.454;2022-07-03T10:22:59;2.30;;;2.10;;
6537;SDS011;3302;52.508;13.454;2022-07-03T10:25:25;2.35;;;2.15;;
6537;SDS011;3302;52.508;13.454;2022-07-03T10:27:51;3.28;;;2.90;;
6537;SDS011;3302;52.508;13.454;2022-07-03T10:30:21;3.83;;;2.70;;
6537;SDS011;3302;52.508;13.454;2022-07-03T10:32:50;2.50;;;2.30;;
6537;SDS011;3302;52.508;13.454;2022-07-03T10:35:21;4.88;;;2.38;;
6537;SDS011;3302;52.508;13.454;2022-07-03T10:43:29;4.03;;;2.30;;
6537;SDS011;3302;52.508;13.454;2022-07-03T10:46:18;2.63;;;2.40;;
6537;SDS011;3302;52.508;13.454;2022-07-03T10:51:24;3.35;;;2.28;;
6537;SDS011;3302;52.508;13.454;2022-07-03T10:54:11;8.05;;;3.20;;
6537;SDS011;3302;52.508;13.454;2022-07-03T11:07:25;3.15;;;2.47;;
6537;SDS011;3302;52.508;13.454;2022-07-03T11:10:28;3.50;;;2.30;;
6537;SDS011;3302;52.508;13.454;2022-07-03T11:15:31;2.60;;;2.17;;
6537;SDS011;3302;52.508;13.454;2022-07-03T11:25:47;2.20;;;2.00;;
6537;SDS011;3302;52.508;13.454;2022-07-03T11:38:42;2.58;;;2.15;;
6537;SDS011;3302;52.508;13.454;2022-07-03T11:44:03;2.50;;;2.30;;
6537;SDS011;3302;52.508;13.454;2022-07-03T11:46:34;4.63;;;2.50;;
6537;SDS011;3302;52.508;13.454;2022-07-03T11:49:05;3.72;;;2.28;;
6537;SDS011;3302;52.508;13.454;2022-07-03T11:51:32;3.05;;;2.22;;
6537;SDS011;3302;52.508;13.454;2022-07-03T11:53:58;4.40;;;2.08;;
6537;SDS011;3302;52.508;13.454;2022-07-03T11:56:24;4.45;;;2.40;;
6537;SDS011;3302;52.508;13.454;2022-07-03T11:58:51;5.05;;;3.38;;
6537;SDS011;3302;52.508;13.454;2022-07-03T12:03:53;3.30;;;2.20;;
6537;SDS011;3302;52.508;13.454;2022-07-03T12:06:42;5.75;;;4.38;;
6537;SDS011;3302;52.508;13.454;2022-07-03T12:09:17;3.25;;;2.50;;
6537;SDS011;3302;52.508;13.454;2022-07-03T12:14:32;2.42;;;2.03;;
6537;SDS011;3302;52.508;13.454;2022-07-03T12:17:00;2.80;;;2.53;;
6537;SDS011;3302;52.508;13.454;2022-07-03T12:19:26;3.40;;;2.10;;
6537;SDS011;3302;52.508;13.454;2022-07-03T12:21:52;6.55;;;2.78;;
6537;SDS011;3302;52.508;13.454;2022-07-03T12:24:18;3.38;;;2.53;;
6537;SDS011;3302;52.508;13.454;2022-07-03T12:26:43;4.35;;;2.38;;
6537;SDS011;3302;52.508;13.454;2022-07-03T12:29:10;3.88;;;2.10;;
6537;SDS011;3302;52.508;13.454;2022-07-03T12:31:39;3.47;;;2.60;;
6537;SDS011;3302;52.508;13.454;2022-07-03T12:34:06;6.70;;;2.22;;
6537;SDS011;3302;52.508;13.454;2022-07-03T12:36:31;2.53;;;2.33;;
6537;SDS011;3302;52.508;13.454;2022-07-03T12:38:58;6.10;;;2.28;;
6537;SDS011;3302;52.508;13.454;2022-07-03T12:41:25;2.35;;;2.00;;
6537;SDS011;3302;52.508;13.454;2022-07-03T12:43:52;3.72;;;2.17;;
6537;SDS011;3302;52.508;13.454;2022-07-03T12:46:25;4.20;;;2.35;;
6537;SDS011;3302;52.508;13.454;2022-07-03T12:48:58;1.92;;;1.83;;
6537;SDS011;3302;52.508;13.454;2022-07-03T12:54:14;2.30;;;2.10;;
6537;SDS011;3302;52.508;13.454;2022-07-03T12:56:46;3.75;;;2.30;;
6537;SDS011;3302;52.508;13.454;2022-07-03T13:02:37;2.88;;;2.45;;
6537;SDS011;3302;52.508;13.454;2022-07-03T13:05:15;3.53;;;2.60;;
6537;SDS011;3302;52.508;13.454;2022-07-03T13:07:43;4.75;;;2.55;;
6537;SDS011;3302;52.508;13.454;2022-07-03T13:10:10;3.08;;;1.92;;
6537;SDS011;3302;52.508;13.454;2022-07-03T13:15:18;2.80;;;2.50;;
6537;SDS011;3302;52.508;13.454;2022-07-03T13:20:22;5.07;;;2.28;;
6537;SDS011;3302;52.508;13.454;2022-07-03T13:22:57;3.45;;;2.55;;
6537;SDS011;3302;52.508;13.454;2022-07-03T13:25:24;3.42;;;2.30;;
6537;SDS011;3302;52.508;13.454;2022-07-03T13:27:49;2.13;;;1.92;;
6537;SDS011;3302;52.508;13.454;2022-07-03T13:30:16;3.22;;;1.90;;
6537;SDS011;3302;52.508;13.454;2022-07-03T13:32:43;2.22;;;2.03;;
6537;SDS011;3302;52.508;13.454;2022-07-03T13:35:09;5.13;;;2.50;;
6537;SDS011;3302;52.508;13.454;2022-07-03T13:37:35;4.60;;;2.10;;
6537;SDS011;3302;52.508;13.454;2022-07-03T13:40:02;2.22;;;2.10;;
6537;SDS011;3302;52.508;13.454;2022-07-03T13:42:29;4.13;;;2.30;;
6537;SDS011;3302;52.508;13.454;2022-07-03T13:44:55;2.60;;;2.40;;
6537;SDS011;3302;52.508;13.454;2022-07-03T13:47:21;3.83;;;3.40;;
6537;SDS011;3302;52.508;13.454;2022-07-03T13:49:47;3.47;;;2.20;;
6537;SDS011;3302;52.508;13.454;2022-07-03T13:52:13;2.60;;;2.40;;
6537;SDS011;3302;52.508;13.454;2022-07-03T13:54:39;4.65;;;2.38;;
6537;SDS011;3302;52.508;13.454;2022-07-03T13:57:05;2.20;;;2.00;;
6537;SDS011;3302;52.508;13.454;2022-07-03T13:59:31;3.35;;;2.10;;
6537;SDS011;3302;52.508;13.454;2022-07-03T14:01:57;2.83;;;2.20;;
6537;SDS011;3302;52.508;13.454;2022-07-03T14:04:23;2.42;;;2.22;;
6537;SDS011;3302;52.508;13.454;2022-07-03T14:06:49;3.20;;;2.20;;
6537;SDS011;3302;52.508;13.454;2022-07-03T14:09:15;3.35;;;2.30;;
6537;SDS011;3302;52.508;13.454;2022-07-03T14:11:41;2.88;;;1.92;;
6537;SDS011;3302;52.508;13.454;2022-07-03T14:14:07;3.83;;;2.30;;
6537;SDS011;3302;52.508;13.454;2022-07-03T14:16:33;2.20;;;2.00;;
6537;SDS011;3302;52.508;13.454;2022-07-03T14:18:59;2.70;;;2.40;;
6537;SDS011;3302;52.508;13.454;2022-07-03T14:21:28;2.55;;;2.30;;
6537;SDS011;3302;52.508;13.454;2022-07-03T14:23:54;2.38;;;2.00;;
6537;SDS011;3302;52.508;13.454;2022-07-03T14:26:20;2.20;;;2.00;;
6537;SDS011;3302;52.508;13.454;2022-07-03T14:29:06;2.38;;;2.00;;
6537;SDS011;3302;52.508;13.454;2022-07-03T14:31:53;3.05;;;1.90;;
6537;SDS011;3302;52.508;13.454;2022-07-03T14:34:43;6.13;;;2.72;;
6537;SDS011;3302;52.508;13.454;2022-07-03T14:37:08;3.05;;;2.10;;
6537;SDS011;3302;52.508;13.454;2022-07-03T14:39:34;2.67;;;2.00;;
6537;SDS011;3302;52.508;13.454;2022-07-03T14:42:00;2.60;;;2.40;;
6537;SDS011;3302;52.508;13.454;2022-07-03T14:44:28;2.80;;;2.20;;
6537;SDS011;3302;52.508;13.454;2022-07-03T14:46:54;2.90;;;2.35;;
6537;SDS011;3302;52.508;13.454;2022-07-03T14:49:20;3.90;;;2.10;;
6537;SDS011;3302;52.508;13.454;2022-07-03T14:51:46;2.80;;;2.33;;
6537;SDS011;3302;52.508;13.454;2022-07-03T14:54:16;5.22;;;2.08;;
6537;SDS011;3302;52.508;13.454;2022-07-03T14:57:02;2.58;;;2.08;;
6537;SDS011;3302;52.508;13.454;2022-07-03T15:02:19;2.90;;;2.28;;
6537;SDS011;3302;52.508;13.454;2022-07-03T15:07:32;2.95;;;2.15;;
6537;SDS011;3302;52.508;13.454;2022-07-03T15:10:04;5.40;;;3.88;;
6537;SDS011;3302;52.508;13.454;2022-07-03T15:12:36;2.40;;;2.20;;
6537;SDS011;3302;52.508;13.454;2022-07-03T15:15:07;2.42;;;2.22;;
6537;SDS011;3302;52.508;13.454;2022-07-03T15:17:37;3.90;;;2.03;;
6537;SDS011;3302;52.508;13.454;2022-07-03T15:20:03;3.45;;;2.10;;
6537;SDS011;3302;52.508;13.454;2022-07-03T15:22:30;2.72;;;2.20;;
6537;SDS011;3302;52.508;13.454;2022-07-03T15:24:58;3.72;;;2.30;;
6537;SDS011;3302;52.508;13.454;2022-07-03T15:27:25;2.60;;;2.10;;
6537;SDS011;3302;52.508;13.454;2022-07-03T15:29:53;2.60;;;2.15;;
6537;SDS011;3302;52.508;13.454;2022-07-03T15:32:20;7.43;;;2.42;;
6537;SDS011;3302;52.508;13.454;2022-07-03T15:34:47;2.85;;;2.13;;
6537;SDS011;3302;52.508;13.454;2022-07-03T15:37:18;3.40;;;2.00;;
6537;SDS011;3302;52.508;13.454;2022-07-03T15:40:28;2.95;;;2.50;;
6537;SDS011;3302;52.508;13.454;2022-07-03T15:43:13;3.55;;;2.42;;
6537;SDS011;3302;52.508;13.454;2022-07-03T15:49:13;2.90;;;2.60;;
6537;SDS011;3302;52.508;13.454;2022-07-03T15:54:27;3.90;;;2.40;;
6537;SDS011;3302;52.508;13.454;2022-07-03T15:57:01;4.05;;;2.22;;
6537;SDS011;3302;52.508;13.454;2022-07-03T15:59:29;3.80;;;2.08;;
6537;SDS011;3302;52.508;13.454;2022-07-03T16:02:00;3.60;;;2.25;;
6537;SDS011;3302;52.508;13.454;2022-07-03T16:07:31;2.33;;;2.10;;
6537;SDS011;3302;52.508;13.454;2022-07-03T16:10:01;2.05;;;1.90;;
6537;SDS011;3302;52.508;13.454;2022-07-03T16:12:27;2.47;;;2.10;;
6537;SDS011;3302;52.508;13.454;2022-07-03T16:14:53;2.38;;;2.17;;
6537;SDS011;3302;52.508;13.454;2022-07-03T16:17:20;2.58;;;2.25;;
6537;SDS011;3302;52.508;13.454;2022-07-03T16:19:47;2.85;;;2.25;;
6537;SDS011;3302;52.508;13.454;2022-07-03T16:22:14;2.95;;;2.00;;
6537;SDS011;3302;52.508;13.454;2022-07-03T16:24:41;2.10;;;1.90;;
6537;SDS011;3302;52.508;13.454;2022-07-03T16:27:10;2.20;;;2.00;;
6537;SDS011;3302;52.508;13.454;2022-07-03T16:29:38;3.08;;;2.65;;
6537;SDS011;3302;52.508;13.454;2022-07-03T16:32:04;3.03;;;2.17;;
6537;SDS011;3302;52.508;13.454;2022-07-03T16:34:52;2.70;;;2.40;;
6537;SDS011;3302;52.508;13.454;2022-07-03T16:37:32;3.03;;;2.15;;
6537;SDS011;3302;52.508;13.454;2022-07-03T16:40:02;3.55;;;2.20;;
6537;SDS011;3302;52.508;13.454;2022-07-03T16:42:31;3.47;;;2.10;;
6537;SDS011;3302;52.508;13.454;2022-07-03T16:45:02;2.83;;;2.30;;
6537;SDS011;3302;52.508;13.454;2022-07-03T16:47:36;4.68;;;2.42;;
6537;SDS011;3302;52.508;13.454;2022-07-03T16:50:08;4.22;;;2.45;;
6537;SDS011;3302;52.508;13.454;2022-07-03T16:52:53;2.90;;;2.20;;
6537;SDS011;3302;52.508;13.454;2022-07-03T16:55:20;4.25;;;2.70;;
6537;SDS011;3302;52.508;13.454;2022-07-03T16:57:48;3.50;;;2.08;;
6537;SDS011;3302;52.508;13.454;2022-07-03T17:00:16;2.47;;;2.28;;
6537;SDS011;3302;52.508;13.454;2022-07-03T17:02:45;4.20;;;2.50;;
6537;SDS011;3302;52.508;13.454;2022-07-03T17:05:13;6.78;;;2.50;;
6537;SDS011;3302;52.508;13.454;2022-07-03T17:07:41;2.40;;;2.20;;
6537;SDS011;3302;52.508;13.454;2022-07-03T17:10:12;2.42;;;2.08;;
6537;SDS011;3302;52.508;13.454;2022-07-03T17:12:43;3.13;;;2.30;;